createdAt,value
2022-11-25T00:01:08.818Z,4.07
2022-11-25T00:03:36.227Z,5.33
2022-11-25T00:06:10.635Z,6.30
2022-11-25T00:08:37.919Z,5.03
2022-11-25T00:11:05.798Z,3.20
2022-11-25T00:13:33.313Z,4.30
2022-11-25T00:16:04.966Z,10.13
2022-11-25T00:18:32.068Z,8.03
2022-11-25T00:21:05.206Z,2.90
2022-11-25T00:23:33.471Z,9.17
2022-11-25T00:26:13.048Z,6.07
2022-11-25T00:28:41.439Z,3.97
2022-11-25T00:31:28.797Z,4.40
2022-11-25T00:33:57.516Z,3.77
2022-11-25T00:36:29.264Z,4.50
2022-11-25T00:39:01.830Z,3.27
2022-11-25T00:41:48.261Z,4.53
2022-11-25T00:44:37.042Z,2.43
2022-11-25T00:47:09.304Z,3.37
2022-11-25T00:49:37.131Z,1.57
2022-11-25T00:52:04.892Z,2.50
2022-11-25T00:54:31.950Z,1.83
2022-11-25T00:56:59.094Z,4.20
2022-11-25T00:59:26.221Z,1.80
2022-11-25T01:01:53.218Z,2.23
2022-11-25T01:04:20.175Z,1.73
2022-11-25T01:06:47.067Z,2.67
2022-11-25T01:09:15.211Z,1.40
2022-11-25T01:11:43.130Z,1.33
2022-11-25T01:14:10.023Z,1.87
2022-11-25T01:16:36.976Z,2.53
2022-11-25T01:19:04.384Z,1.60
2022-11-25T01:21:34.113Z,1.90
2022-11-25T01:24:02.972Z,1.87
2022-11-25T01:26:30.549Z,3.50
2022-11-25T01:29:02.934Z,2.97
2022-11-25T01:31:33.029Z,3.83
2022-11-25T01:34:02.721Z,1.93
2022-11-25T01:36:30.191Z,2.27
2022-11-25T01:38:59.296Z,1.83
2022-11-25T01:41:28.976Z,4.30
2022-11-25T01:44:20.103Z,2.33
2022-11-25T01:46:56.098Z,3.40
2022-11-25T01:49:30.372Z,3.10
2022-11-25T01:52:02.852Z,4.60
2022-11-25T01:54:34.475Z,3.00
2022-11-25T01:57:10.950Z,6.70
2022-11-25T01:59:43.831Z,6.37
2022-11-25T02:02:11.702Z,5.80
2022-11-25T02:04:40.279Z,4.73
2022-11-25T02:07:24.182Z,7.40
2022-11-25T02:09:51.521Z,7.23
2022-11-25T02:12:19.921Z,5.37
2022-11-25T02:14:48.619Z,9.03
2022-11-25T02:17:15.590Z,5.03
2022-11-25T02:20:05.040Z,2.60
2022-11-25T02:23:03.165Z,2.60
2022-11-25T02:25:33.367Z,2.87
2022-11-25T02:28:16.864Z,1.77
2022-11-25T02:30:45.342Z,2.57
2022-11-25T02:33:13.439Z,2.97
2022-11-25T02:36:02.014Z,3.37
2022-11-25T02:38:39.524Z,2.43
2022-11-25T02:41:32.332Z,3.37
2022-11-25T02:44:03.201Z,1.77
2022-11-25T02:46:30.919Z,1.77
2022-11-25T02:49:14.799Z,2.53
2022-11-25T02:51:44.998Z,1.63
2022-11-25T02:54:13.335Z,4.80
2022-11-25T02:56:40.674Z,1.97
2022-11-25T02:59:08.909Z,4.67
2022-11-25T03:01:36.501Z,4.63
2022-11-25T03:04:06.526Z,9.60
2022-11-25T03:06:33.621Z,4.30
2022-11-25T03:09:02.217Z,8.37
2022-11-25T03:11:49.737Z,7.63
2022-11-25T03:14:17.011Z,4.17
2022-11-25T03:16:44.131Z,5.60
2022-11-25T03:19:11.254Z,7.10
2022-11-25T03:21:38.273Z,9.10
2022-11-25T03:24:05.448Z,3.30
2022-11-25T03:26:32.612Z,3.10
2022-11-25T03:28:59.420Z,1.93
2022-11-25T03:31:26.856Z,4.37
2022-11-25T03:33:55.277Z,3.50
2022-11-25T03:36:23.204Z,2.87
2022-11-25T03:38:50.472Z,4.57
2022-11-25T03:41:17.909Z,2.80
2022-11-25T03:43:46.028Z,1.80
2022-11-25T03:46:14.029Z,3.00
2022-11-25T03:48:40.982Z,4.03
2022-11-25T03:51:08.383Z,2.37
2022-11-25T03:53:35.768Z,4.07
2022-11-25T03:56:06.457Z,2.87
2022-11-25T03:58:34.533Z,2.80
2022-11-25T04:01:03.751Z,2.30
2022-11-25T04:03:31.389Z,3.13
2022-11-25T04:05:58.976Z,5.43
2022-11-25T04:08:27.344Z,2.83
2022-11-25T04:10:55.613Z,2.77
2022-11-25T04:13:25.474Z,5.13
2022-11-25T04:15:52.753Z,3.90
2022-11-25T04:18:21.303Z,6.63
2022-11-25T04:20:51.790Z,3.47
2022-11-25T04:23:18.646Z,3.53
2022-11-25T04:25:54.449Z,4.30
2022-11-25T04:28:31.065Z,3.90
2022-11-25T04:30:58.167Z,2.80
2022-11-25T04:33:25.268Z,4.30
2022-11-25T04:35:52.869Z,2.97
2022-11-25T04:38:20.598Z,3.13
2022-11-25T04:40:48.025Z,2.53
2022-11-25T04:43:19.026Z,3.07
2022-11-25T04:46:13.557Z,4.43
2022-11-25T04:48:41.178Z,6.20
2022-11-25T04:51:08.770Z,5.13
2022-11-25T04:53:35.627Z,4.40
2022-11-25T04:56:04.057Z,5.60
2022-11-25T04:58:56.911Z,7.30
2022-11-25T05:01:23.853Z,3.97
2022-11-25T05:03:57.655Z,4.37
2022-11-25T05:06:26.359Z,6.57
2022-11-25T05:08:53.763Z,7.17
2022-11-25T05:11:23.117Z,8.33
2022-11-25T05:13:50.955Z,4.23
2022-11-25T05:16:18.841Z,3.60
2022-11-25T05:18:45.947Z,3.47
2022-11-25T05:21:13.310Z,3.50
2022-11-25T05:23:42.225Z,4.23
2022-11-25T05:26:09.473Z,3.70
2022-11-25T05:28:46.344Z,7.40
2022-11-25T05:31:14.472Z,7.90
2022-11-25T05:33:41.343Z,5.60
2022-11-25T05:36:10.994Z,5.50
2022-11-25T05:38:46.137Z,8.00
2022-11-25T05:41:17.640Z,8.83
2022-11-25T05:43:47.124Z,10.23
2022-11-25T05:46:14.544Z,15.77
2022-11-25T05:48:47.345Z,14.60
2022-11-25T05:51:14.447Z,12.10
2022-11-25T05:53:41.273Z,15.17
2022-11-25T05:56:09.877Z,18.17
2022-11-25T05:59:00.547Z,12.87
2022-11-25T06:01:41.752Z,9.93
2022-11-25T06:04:10.691Z,11.37
2022-11-25T06:06:37.901Z,9.17
2022-11-25T06:09:04.827Z,13.23
2022-11-25T06:11:31.750Z,10.17
2022-11-25T06:13:58.892Z,12.33
2022-11-25T06:16:26.462Z,14.03
2022-11-25T06:19:06.721Z,16.23
2022-11-25T06:21:34.062Z,13.17
2022-11-25T06:24:01.333Z,13.43
2022-11-25T06:26:28.679Z,15.40
2022-11-25T06:28:56.395Z,15.00
2022-11-25T06:31:26.137Z,17.43
2022-11-25T06:34:01.752Z,14.80
2022-11-25T06:36:28.737Z,12.93
2022-11-25T06:38:55.702Z,17.57
2022-11-25T06:41:23.094Z,20.07
2022-11-25T06:43:50.380Z,12.40
2022-11-25T06:46:24.464Z,14.97
2022-11-25T06:48:53.373Z,8.53
2022-11-25T06:51:20.687Z,9.17
2022-11-25T06:53:47.509Z,13.03
2022-11-25T06:56:23.418Z,7.70
2022-11-25T06:58:51.771Z,8.10
2022-11-25T07:01:21.729Z,8.60
2022-11-25T07:03:51.656Z,9.23
2022-11-25T07:06:20.299Z,8.57
2022-11-25T07:08:47.837Z,10.27
2022-11-25T07:11:22.405Z,6.97
2022-11-25T07:13:54.070Z,7.50
2022-11-25T07:16:21.264Z,7.70
2022-11-25T07:18:48.342Z,6.53
2022-11-25T07:21:17.939Z,5.23
2022-11-25T07:23:45.884Z,5.10
2022-11-25T07:26:21.774Z,5.93
2022-11-25T07:28:49.942Z,6.20
2022-11-25T07:31:24.247Z,5.57
2022-11-25T07:33:54.168Z,5.10
2022-11-25T07:36:22.941Z,6.23
2022-11-25T07:38:49.799Z,9.03
2022-11-25T07:41:19.676Z,15.53
2022-11-25T07:43:48.616Z,10.17
2022-11-25T07:46:26.532Z,14.67
2022-11-25T07:48:56.265Z,12.63
2022-11-25T07:51:26.103Z,11.53
2022-11-25T07:53:55.033Z,9.73
2022-11-25T07:56:22.298Z,9.40
2022-11-25T07:58:49.218Z,7.23
2022-11-25T08:01:17.674Z,7.93
2022-11-25T08:03:46.385Z,7.33
2022-11-25T08:06:16.259Z,10.03
2022-11-25T08:08:44.602Z,6.97
2022-11-25T08:11:17.179Z,5.57
2022-11-25T08:13:44.557Z,5.33
2022-11-25T08:16:14.485Z,5.80
2022-11-25T08:18:41.896Z,10.70
2022-11-25T08:21:11.872Z,8.17
2022-11-25T08:23:40.577Z,10.07
2022-11-25T08:26:12.785Z,8.93
2022-11-25T08:28:41.431Z,7.30
2022-11-25T08:31:20.089Z,7.33
2022-11-25T08:33:47.473Z,7.17
2022-11-25T08:36:15.492Z,8.70
2022-11-25T08:38:43.619Z,13.57
2022-11-25T08:41:16.147Z,11.53
2022-11-25T08:43:43.855Z,12.00
2022-11-25T08:46:23.154Z,10.03
2022-11-25T08:48:50.204Z,9.60
2022-11-25T08:51:21.761Z,13.93
2022-11-25T08:53:51.161Z,11.67
2022-11-25T08:56:25.515Z,11.17
2022-11-25T08:58:54.022Z,10.20
2022-11-25T09:01:22.208Z,8.70
2022-11-25T09:03:51.773Z,9.50
2022-11-25T09:06:20.098Z,9.20
2022-11-25T09:08:47.148Z,12.67
2022-11-25T09:11:15.057Z,10.70
2022-11-25T09:13:41.934Z,11.10
2022-11-25T09:16:09.675Z,7.37
2022-11-25T09:18:37.339Z,7.37
2022-11-25T09:21:13.360Z,7.33
2022-11-25T09:23:40.209Z,8.57
2022-11-25T09:26:08.157Z,8.07
2022-11-25T09:28:35.576Z,11.20
2022-11-25T09:31:09.693Z,11.03
2022-11-25T09:33:37.102Z,8.60
2022-11-25T09:36:05.958Z,8.10
2022-11-25T09:38:34.122Z,6.20
2022-11-25T09:41:47.658Z,4.50
2022-11-25T09:44:48.468Z,4.47
2022-11-25T09:47:33.589Z,5.10
2022-11-25T09:50:09.300Z,3.63
2022-11-25T09:53:10.536Z,4.50
2022-11-25T09:55:44.931Z,3.70
2022-11-25T09:58:23.718Z,4.93
2022-11-25T10:00:52.584Z,5.70
2022-11-25T10:03:53.979Z,3.80
2022-11-25T10:06:28.613Z,6.00
2022-11-25T10:08:57.547Z,3.90
2022-11-25T10:11:47.664Z,3.83
2022-11-25T10:14:30.132Z,5.43
2022-11-25T10:17:33.440Z,3.27
2022-11-25T10:20:23.268Z,3.83
2022-11-25T10:23:08.699Z,2.03
2022-11-25T10:25:45.822Z,5.87
2022-11-25T10:28:12.656Z,4.03
2022-11-25T10:30:45.840Z,5.17
2022-11-25T10:33:21.421Z,5.77
2022-11-25T10:36:20.238Z,4.73
2022-11-25T10:38:52.882Z,3.67
2022-11-25T10:41:23.697Z,5.27
2022-11-25T10:43:50.754Z,5.10
2022-11-25T10:47:11.528Z,3.43
2022-11-25T10:49:49.908Z,4.53
2022-11-25T10:52:22.638Z,7.50
2022-11-25T10:55:10.868Z,4.40
2022-11-25T10:57:37.752Z,5.70
2022-11-25T11:00:09.590Z,6.03
2022-11-25T11:02:41.289Z,4.23
2022-11-25T11:05:08.169Z,5.17
2022-11-25T11:07:41.847Z,5.07
2022-11-25T11:10:15.334Z,3.73
2022-11-25T11:13:03.671Z,3.30
2022-11-25T11:15:41.582Z,4.13
2022-11-25T11:18:25.435Z,7.70
2022-11-25T11:21:00.243Z,3.47
2022-11-25T11:23:28.400Z,3.60
2022-11-25T11:25:56.349Z,3.20
2022-11-25T11:28:33.084Z,2.87
2022-11-25T11:31:25.472Z,6.10
2022-11-25T11:34:11.287Z,3.40
2022-11-25T11:37:06.076Z,2.53
2022-11-25T11:40:00.681Z,3.03
2022-11-25T11:42:42.672Z,3.87
2022-11-25T11:45:22.507Z,3.20
2022-11-25T11:48:11.066Z,3.17
2022-11-25T11:51:25.696Z,3.47
2022-11-25T11:54:18.130Z,3.03
2022-11-25T11:56:55.522Z,5.50
2022-11-25T11:59:37.041Z,3.57
2022-11-25T12:02:12.949Z,4.20
2022-11-25T12:05:00.791Z,4.80
2022-11-25T12:07:56.762Z,3.50
2022-11-25T12:10:40.954Z,8.03
2022-11-25T12:13:35.195Z,6.23
2022-11-25T12:16:24.416Z,7.67
2022-11-25T12:19:13.622Z,6.67
2022-11-25T12:22:17.356Z,3.47
2022-11-25T12:24:54.325Z,6.77
2022-11-25T12:27:27.269Z,4.43
2022-11-25T12:30:12.636Z,3.87
2022-11-25T12:32:53.517Z,4.27
2022-11-25T12:35:46.921Z,3.43
2022-11-25T12:38:50.998Z,4.43
2022-11-25T12:41:39.664Z,6.27
2022-11-25T12:44:31.020Z,6.07
2022-11-25T12:46:58.701Z,5.80
2022-11-25T12:49:26.681Z,7.00
2022-11-25T12:52:13.409Z,5.83
2022-11-25T12:55:21.971Z,6.73
2022-11-25T12:58:06.605Z,3.17
2022-11-25T13:00:52.167Z,24.70
2022-11-25T13:03:49.929Z,20.57
2022-11-25T13:06:38.616Z,21.33
2022-11-25T13:09:57.087Z,8.93
2022-11-25T13:12:47.353Z,8.40
2022-11-25T13:15:31.092Z,12.60
2022-11-25T13:18:03.939Z,10.03
2022-11-25T13:20:30.921Z,8.30
2022-11-25T13:23:23.937Z,8.90
2022-11-25T13:26:11.744Z,4.63
2022-11-25T13:28:38.694Z,3.70
2022-11-25T13:31:14.763Z,7.63
2022-11-25T13:33:44.881Z,3.77
2022-11-25T13:36:21.765Z,5.53
2022-11-25T13:38:51.406Z,3.70
2022-11-25T13:41:21.302Z,5.63
2022-11-25T13:43:53.884Z,6.50
2022-11-25T13:46:44.258Z,11.70
2022-11-25T13:49:52.921Z,11.50
2022-11-25T13:52:42.150Z,20.57
2022-11-25T13:55:24.184Z,14.47
2022-11-25T13:58:09.544Z,8.53
2022-11-25T14:00:37.557Z,4.20
2022-11-25T14:03:19.670Z,4.67
2022-11-25T14:05:50.865Z,4.90
2022-11-25T14:08:30.882Z,8.23
2022-11-25T14:11:09.837Z,7.43
2022-11-25T14:13:55.746Z,4.00
2022-11-25T14:16:48.194Z,4.90
2022-11-25T14:19:52.836Z,3.87
2022-11-25T14:22:50.805Z,5.40
2022-11-25T14:25:27.592Z,3.13
2022-11-25T14:28:07.562Z,3.67
2022-11-25T14:30:35.871Z,3.50
2022-11-25T14:33:08.257Z,2.57
2022-11-25T14:35:45.340Z,2.10
2022-11-25T14:38:29.332Z,6.23
2022-11-25T14:41:05.005Z,4.43
2022-11-25T14:43:45.526Z,3.83
2022-11-25T14:46:15.499Z,3.17
2022-11-25T14:48:43.938Z,3.63
2022-11-25T14:51:18.636Z,4.43
2022-11-25T14:53:48.825Z,3.53
2022-11-25T14:56:36.819Z,4.67
2022-11-25T14:59:03.936Z,2.93
2022-11-25T15:01:33.527Z,3.60
2022-11-25T15:04:18.124Z,3.10
2022-11-25T15:06:53.077Z,5.80
2022-11-25T15:09:21.298Z,8.53
2022-11-25T15:11:51.356Z,4.37
2022-11-25T15:14:26.572Z,7.27
2022-11-25T15:16:54.546Z,3.00
2022-11-25T15:19:30.628Z,3.47
2022-11-25T15:24:55.796Z,5.87
2022-11-25T15:27:27.475Z,6.83
2022-11-25T15:29:56.208Z,9.47
2022-11-25T15:32:26.736Z,5.47
2022-11-25T15:34:56.060Z,6.97
2022-11-25T15:37:24.100Z,8.17
2022-11-25T15:40:11.285Z,4.23
2022-11-25T15:42:38.123Z,4.20
2022-11-25T15:45:11.335Z,6.40
2022-11-25T15:47:38.217Z,7.83
2022-11-25T15:50:19.520Z,4.53
2022-11-25T15:52:51.424Z,5.87
2022-11-25T15:55:35.584Z,8.03
2022-11-25T15:58:17.543Z,7.93
2022-11-25T16:01:03.942Z,5.23
2022-11-25T16:03:33.706Z,9.33
2022-11-25T16:06:18.349Z,11.20
2022-11-25T16:08:54.408Z,8.60
2022-11-25T16:11:23.262Z,11.10
2022-11-25T16:13:51.289Z,10.77
2022-11-25T16:16:32.088Z,9.00
2022-11-25T16:19:11.683Z,16.10
2022-11-25T16:21:53.314Z,13.83
2022-11-25T16:24:30.096Z,9.87
2022-11-25T16:27:02.720Z,8.40
2022-11-25T16:29:37.816Z,10.60
2022-11-25T16:32:19.719Z,10.07
2022-11-25T16:34:46.997Z,9.77
2022-11-25T16:37:13.942Z,8.30
2022-11-25T16:39:41.808Z,7.57
2022-11-25T16:42:17.409Z,6.53
2022-11-25T16:44:49.985Z,7.80
2022-11-25T16:47:18.882Z,12.13
2022-11-25T16:49:46.685Z,6.67
2022-11-25T16:52:14.272Z,11.20
2022-11-25T16:54:41.912Z,10.23
2022-11-25T16:57:16.762Z,9.83
2022-11-25T16:59:45.649Z,6.63
2022-11-25T17:02:21.947Z,14.37
2022-11-25T17:04:49.134Z,15.13
2022-11-25T17:07:32.645Z,15.33
2022-11-25T17:09:59.856Z,9.37
2022-11-25T17:12:31.027Z,9.20
2022-11-25T17:15:00.327Z,10.57
2022-11-25T17:17:28.237Z,9.40
2022-11-25T17:19:55.417Z,11.10
2022-11-25T17:22:24.950Z,8.80
2022-11-25T17:24:53.736Z,9.77
2022-11-25T17:27:29.310Z,8.27
2022-11-25T17:30:01.122Z,10.97
2022-11-25T17:32:28.234Z,7.87
2022-11-25T17:34:55.196Z,6.57
2022-11-25T17:37:24.234Z,8.73
2022-11-25T17:39:55.756Z,5.43
2022-11-25T17:42:32.457Z,7.97
2022-11-25T17:45:00.470Z,7.83
2022-11-25T17:47:27.395Z,8.50
2022-11-25T17:49:54.476Z,8.03
2022-11-25T17:52:21.521Z,13.43
2022-11-25T17:54:48.393Z,14.73
2022-11-25T17:57:20.888Z,11.03
2022-11-25T17:59:48.250Z,9.57
2022-11-25T18:02:22.045Z,10.93
2022-11-25T18:04:49.232Z,8.13
2022-11-25T18:07:16.324Z,9.13
2022-11-25T18:09:44.476Z,12.50
2022-11-25T18:12:28.069Z,11.33
2022-11-25T18:14:55.875Z,9.07
2022-11-25T18:17:23.092Z,6.23
2022-11-25T18:19:54.995Z,8.03
2022-11-25T18:26:11.161Z,6.60
2022-11-25T18:28:38.162Z,8.53
2022-11-25T18:31:06.364Z,8.53
2022-11-25T18:33:33.634Z,6.43
2022-11-25T18:36:00.796Z,7.60
2022-11-25T18:38:27.612Z,8.73
2022-11-25T18:40:54.979Z,11.60
2022-11-25T18:43:24.803Z,12.97
2022-11-25T18:45:53.482Z,13.00
2022-11-25T18:48:25.351Z,8.57
2022-11-25T18:50:54.822Z,12.63
2022-11-25T18:53:21.877Z,10.03
2022-11-25T18:55:49.497Z,11.27
2022-11-25T18:58:18.958Z,9.40
2022-11-25T19:00:49.090Z,8.57
2022-11-25T19:03:25.884Z,8.17
2022-11-25T19:05:55.868Z,8.17
2022-11-25T19:08:22.647Z,7.87
2022-11-25T19:10:51.264Z,6.13
2022-11-25T19:13:23.487Z,6.63
2022-11-25T19:15:51.321Z,8.70
2022-11-25T19:18:24.973Z,11.30
2022-11-25T19:20:51.923Z,11.97
2022-11-25T19:23:28.251Z,13.97
2022-11-25T19:26:00.321Z,11.10
2022-11-25T19:28:28.494Z,8.57
2022-11-25T19:30:59.417Z,9.80
2022-11-25T19:33:36.430Z,7.53
2022-11-25T19:36:05.393Z,7.57
2022-11-25T19:38:32.944Z,3.97
2022-11-25T19:40:59.705Z,7.80
2022-11-25T19:43:29.173Z,6.77
2022-11-25T19:45:57.768Z,9.27
2022-11-25T19:48:27.108Z,8.20
2022-11-25T19:50:59.754Z,6.80
2022-11-25T19:53:33.578Z,10.03
2022-11-25T19:56:04.136Z,7.87
2022-11-25T19:58:31.576Z,7.17
2022-11-25T20:01:02.270Z,5.73
2022-11-25T20:03:30.880Z,6.37
2022-11-25T20:05:58.164Z,9.13
2022-11-25T20:08:28.866Z,13.50
2022-11-25T20:10:57.751Z,11.07
2022-11-25T20:13:26.011Z,10.10
2022-11-25T20:15:55.896Z,9.10
2022-11-25T20:18:25.767Z,6.80
2022-11-25T20:21:02.951Z,8.27
2022-11-25T20:23:38.584Z,5.40
2022-11-25T20:26:24.315Z,7.60
2022-11-25T20:28:51.064Z,5.83
2022-11-25T20:31:17.984Z,6.10
2022-11-25T20:33:44.750Z,13.37
2022-11-25T20:36:16.786Z,12.37
2022-11-25T20:38:54.387Z,13.37
2022-11-25T20:41:27.478Z,11.03
2022-11-25T20:43:56.420Z,12.03
2022-11-25T20:46:32.100Z,9.73
2022-11-25T20:49:02.255Z,16.20
2022-11-25T20:51:29.148Z,16.60
2022-11-25T20:53:57.750Z,14.03
2022-11-25T20:56:26.505Z,16.47
2022-11-25T20:58:54.173Z,14.70
2022-11-25T21:01:21.227Z,10.73
2022-11-25T21:03:50.086Z,15.23
2022-11-25T21:06:19.567Z,8.37
2022-11-25T21:08:52.599Z,10.33
2022-11-25T21:11:20.538Z,9.53
2022-11-25T21:13:47.509Z,12.43
2022-11-25T21:16:14.406Z,9.97
2022-11-25T21:18:41.764Z,6.33
2022-11-25T21:21:18.812Z,14.20
2022-11-25T21:23:47.408Z,8.97
2022-11-25T21:26:19.520Z,10.17
2022-11-25T21:28:48.719Z,14.57
2022-11-25T21:31:18.048Z,12.47
2022-11-25T21:33:46.000Z,15.87
2022-11-25T21:36:19.522Z,16.07
2022-11-25T21:38:47.213Z,23.17
2022-11-25T21:41:13.994Z,18.77
2022-11-25T21:43:43.804Z,24.83
2022-11-25T21:46:18.495Z,25.93
2022-11-25T21:48:46.315Z,23.87
2022-11-25T21:51:26.537Z,20.13
2022-11-25T21:54:19.950Z,19.03
2022-11-25T21:56:46.822Z,12.17
2022-11-25T21:59:19.836Z,10.53
2022-11-25T22:01:47.489Z,14.83
2022-11-25T22:04:20.424Z,14.20
2022-11-25T22:06:48.294Z,18.10
2022-11-25T22:09:15.102Z,21.83
2022-11-25T22:11:45.798Z,15.83
2022-11-25T22:14:25.344Z,19.60
2022-11-25T22:16:52.149Z,16.83
2022-11-25T22:19:24.894Z,18.43
2022-11-25T22:21:52.791Z,13.57
2022-11-25T22:24:20.841Z,16.13
2022-11-25T22:26:53.448Z,18.73
2022-11-25T22:29:34.113Z,17.97
2022-11-25T22:32:07.050Z,12.73
2022-11-25T22:34:36.985Z,16.27
2022-11-25T22:37:03.885Z,17.23
2022-11-25T22:39:30.572Z,13.80
2022-11-25T22:42:05.396Z,13.87
2022-11-25T22:44:45.310Z,15.50
2022-11-25T22:47:30.217Z,13.47
2022-11-25T22:49:57.122Z,13.53
2022-11-25T22:52:32.575Z,16.13
2022-11-25T22:55:19.737Z,10.97
2022-11-25T22:57:47.495Z,16.17
2022-11-25T23:00:24.852Z,15.40
2022-11-25T23:03:21.717Z,13.73
2022-11-25T23:05:50.543Z,16.33
2022-11-25T23:08:37.294Z,12.77
2022-11-25T23:11:04.252Z,15.47
2022-11-25T23:13:31.000Z,14.83
2022-11-25T23:15:59.845Z,15.50
2022-11-25T23:18:29.558Z,17.20
2022-11-25T23:20:57.843Z,17.07
2022-11-25T23:23:27.174Z,12.30
2022-11-25T23:25:54.711Z,18.03
2022-11-25T23:28:21.815Z,10.83
2022-11-25T23:30:53.479Z,13.83
2022-11-25T23:33:30.723Z,10.13
2022-11-25T23:35:58.832Z,14.83
2022-11-25T23:38:28.059Z,9.83
2022-11-25T23:40:56.049Z,12.27
2022-11-25T23:43:22.763Z,11.90
2022-11-25T23:45:55.739Z,14.87
2022-11-25T23:48:25.900Z,14.40
2022-11-25T23:50:55.210Z,8.77
2022-11-25T23:53:34.481Z,11.47
2022-11-25T23:56:01.442Z,12.43
2022-11-25T23:58:28.534Z,12.57
